sensor_id;sensor_type;location;lat;lon;timestamp;P1;durP1;ratioP1;P2;durP2;ratioP2
11004;SDS011;5555;59.622;16.556;2022-09-09T00:00:18;2.37;;;1.50;;
11004;SDS011;5555;59.622;16.556;2022-09-09T00:02:46;1.80;;;1.60;;
11004;SDS011;5555;59.622;16.556;2022-09-09T00:08:11;1.43;;;1.33;;
11004;SDS011;5555;59.622;16.556;2022-09-09T00:10:44;1.80;;;1.50;;
11004;SDS011;5555;59.622;16.556;2022-09-09T00:21:38;2.03;;;1.50;;
11004;SDS011;5555;59.622;16.556;2022-09-09T00:24:24;1.40;;;1.30;;
11004;SDS011;5555;59.622;16.556;2022-09-09T00:27:17;2.70;;;1.40;;
11004;SDS011;5555;59.622;16.556;2022-09-09T00:30:19;1.70;;;1.60;;
11004;SDS011;5555;59.622;16.556;2022-09-09T00:32:53;1.30;;;1.20;;
11004;SDS011;5555;59.622;16.556;2022-09-09T00:35:34;1.33;;;1.23;;
11004;SDS011;5555;59.622;16.556;2022-09-09T00:41:18;1.60;;;1.40;;
11004;SDS011;5555;59.622;16.556;2022-09-09T00:43:50;1.30;;;1.20;;
11004;SDS011;5555;59.622;16.556;2022-09-09T00:49:04;0.97;;;0.97;;
11004;SDS011;5555;59.622;16.556;2022-09-09T00:58:09;1.20;;;1.10;;
11004;SDS011;5555;59.622;16.556;2022-09-09T01:00:39;1.77;;;1.00;;
11004;SDS011;5555;59.622;16.556;2022-09-09T01:11:22;1.50;;;1.40;;
11004;SDS011;5555;59.622;16.556;2022-09-09T01:13:54;1.70;;;1.10;;
11004;SDS011;5555;59.622;16.556;2022-09-09T01:16:25;2.40;;;1.30;;
11004;SDS011;5555;59.622;16.556;2022-09-09T01:18:53;1.30;;;1.20;;
11004;SDS011;5555;59.622;16.556;2022-09-09T01:27:35;1.10;;;1.10;;
11004;SDS011;5555;59.622;16.556;2022-09-09T01:30:01;0.90;;;0.90;;
11004;SDS011;5555;59.622;16.556;2022-09-09T01:32:41;1.47;;;1.20;;
11004;SDS011;5555;59.622;16.556;2022-09-09T01:35:08;1.77;;;1.17;;
11004;SDS011;5555;59.622;16.556;2022-09-09T01:37:39;1.10;;;1.07;;
11004;SDS011;5555;59.622;16.556;2022-09-09T01:40:06;2.70;;;1.20;;
11004;SDS011;5555;59.622;16.556;2022-09-09T01:42:33;1.13;;;1.07;;
11004;SDS011;5555;59.622;16.556;2022-09-09T01:44:58;1.20;;;1.10;;
11004;SDS011;5555;59.622;16.556;2022-09-09T01:47:24;2.93;;;1.03;;
11004;SDS011;5555;59.622;16.556;2022-09-09T01:49:50;0.90;;;0.90;;
11004;SDS011;5555;59.622;16.556;2022-09-09T01:52:15;3.67;;;1.10;;
11004;SDS011;5555;59.622;16.556;2022-09-09T01:54:41;0.83;;;0.83;;
11004;SDS011;5555;59.622;16.556;2022-09-09T02:00:11;1.20;;;1.17;;
11004;SDS011;5555;59.622;16.556;2022-09-09T02:02:43;1.30;;;1.20;;
11004;SDS011;5555;59.622;16.556;2022-09-09T02:05:39;1.40;;;1.30;;
11004;SDS011;5555;59.622;16.556;2022-09-09T02:08:15;1.87;;;1.10;;
11004;SDS011;5555;59.622;16.556;2022-09-09T02:13:48;1.10;;;1.00;;
11004;SDS011;5555;59.622;16.556;2022-09-09T02:19:16;1.30;;;1.17;;
11004;SDS011;5555;59.622;16.556;2022-09-09T02:21:37;1.13;;;1.03;;
11004;SDS011;5555;59.622;16.556;2022-09-09T02:24:07;1.13;;;0.93;;
11004;SDS011;5555;59.622;16.556;2022-09-09T02:26:39;1.53;;;0.90;;
11004;SDS011;5555;59.622;16.556;2022-09-09T02:29:16;1.67;;;1.03;;
11004;SDS011;5555;59.622;16.556;2022-09-09T02:31:46;0.90;;;0.90;;
11004;SDS011;5555;59.622;16.556;2022-09-09T02:34:14;1.23;;;1.13;;
11004;SDS011;5555;59.622;16.556;2022-09-09T02:36:43;1.67;;;1.00;;
11004;SDS011;5555;59.622;16.556;2022-09-09T02:39:12;1.87;;;1.10;;
11004;SDS011;5555;59.622;16.556;2022-09-09T02:41:39;1.33;;;1.17;;
11004;SDS011;5555;59.622;16.556;2022-09-09T02:44:24;1.40;;;1.00;;
11004;SDS011;5555;59.622;16.556;2022-09-09T02:47:08;1.17;;;1.10;;
11004;SDS011;5555;59.622;16.556;2022-09-09T02:58:13;0.90;;;0.90;;
11004;SDS011;5555;59.622;16.556;2022-09-09T03:00:45;1.53;;;1.00;;
11004;SDS011;5555;59.622;16.556;2022-09-09T03:03:12;1.03;;;1.00;;
11004;SDS011;5555;59.622;16.556;2022-09-09T03:05:38;0.90;;;0.90;;
11004;SDS011;5555;59.622;16.556;2022-09-09T03:08:04;1.10;;;1.10;;
11004;SDS011;5555;59.622;16.556;2022-09-09T03:10:31;0.93;;;0.80;;
11004;SDS011;5555;59.622;16.556;2022-09-09T03:12:57;1.00;;;0.90;;
11004;SDS011;5555;59.622;16.556;2022-09-09T03:15:23;0.87;;;0.87;;
11004;SDS011;5555;59.622;16.556;2022-09-09T03:17:49;3.93;;;1.00;;
11004;SDS011;5555;59.622;16.556;2022-09-09T03:20:16;0.93;;;0.93;;
11004;SDS011;5555;59.622;16.556;2022-09-09T03:22:41;1.30;;;1.07;;
11004;SDS011;5555;59.622;16.556;2022-09-09T03:25:08;0.97;;;0.90;;
11004;SDS011;5555;59.622;16.556;2022-09-09T03:27:34;0.80;;;0.80;;
11004;SDS011;5555;59.622;16.556;2022-09-09T03:30:00;1.70;;;0.70;;
11004;SDS011;5555;59.622;16.556;2022-09-09T03:32:28;1.00;;;0.67;;
11004;SDS011;5555;59.622;16.556;2022-09-09T03:34:54;1.77;;;1.00;;
11004;SDS011;5555;59.622;16.556;2022-09-09T03:37:20;0.87;;;0.80;;
11004;SDS011;5555;59.622;16.556;2022-09-09T03:39:45;1.63;;;0.80;;
11004;SDS011;5555;59.622;16.556;2022-09-09T03:42:14;1.27;;;0.90;;
11004;SDS011;5555;59.622;16.556;2022-09-09T03:44:43;0.80;;;0.80;;
11004;SDS011;5555;59.622;16.556;2022-09-09T03:47:12;0.87;;;0.80;;
11004;SDS011;5555;59.622;16.556;2022-09-09T03:49:38;0.97;;;0.80;;
11004;SDS011;5555;59.622;16.556;2022-09-09T03:52:03;1.83;;;0.80;;
11004;SDS011;5555;59.622;16.556;2022-09-09T03:54:29;1.10;;;1.00;;
11004;SDS011;5555;59.622;16.556;2022-09-09T03:56:55;0.57;;;0.57;;
11004;SDS011;5555;59.622;16.556;2022-09-09T03:59:20;0.77;;;0.73;;
11004;SDS011;5555;59.622;16.556;2022-09-09T04:01:46;3.13;;;0.87;;
11004;SDS011;5555;59.622;16.556;2022-09-09T04:04:12;1.20;;;0.90;;
11004;SDS011;5555;59.622;16.556;2022-09-09T04:06:38;1.27;;;0.63;;
11004;SDS011;5555;59.622;16.556;2022-09-09T04:09:04;0.77;;;0.77;;
11004;SDS011;5555;59.622;16.556;2022-09-09T04:11:29;0.87;;;0.87;;
11004;SDS011;5555;59.622;16.556;2022-09-09T04:13:55;1.10;;;1.00;;
11004;SDS011;5555;59.622;16.556;2022-09-09T04:16:20;1.33;;;0.97;;
11004;SDS011;5555;59.622;16.556;2022-09-09T04:18:46;1.70;;;0.80;;
11004;SDS011;5555;59.622;16.556;2022-09-09T04:21:12;1.67;;;0.97;;
11004;SDS011;5555;59.622;16.556;2022-09-09T04:23:38;0.80;;;0.80;;
11004;SDS011;5555;59.622;16.556;2022-09-09T04:26:04;1.53;;;1.00;;
11004;SDS011;5555;59.622;16.556;2022-09-09T04:28:31;1.50;;;0.93;;
11004;SDS011;5555;59.622;16.556;2022-09-09T04:31:09;1.43;;;1.00;;
11004;SDS011;5555;59.622;16.556;2022-09-09T04:33:39;0.83;;;0.83;;
11004;SDS011;5555;59.622;16.556;2022-09-09T04:36:05;0.83;;;0.80;;
11004;SDS011;5555;59.622;16.556;2022-09-09T04:38:31;0.93;;;0.87;;
11004;SDS011;5555;59.622;16.556;2022-09-09T04:40:56;1.50;;;0.70;;
11004;SDS011;5555;59.622;16.556;2022-09-09T04:43:22;0.80;;;0.80;;
11004;SDS011;5555;59.622;16.556;2022-09-09T04:45:51;0.90;;;0.83;;
11004;SDS011;5555;59.622;16.556;2022-09-09T04:48:17;1.07;;;0.83;;
11004;SDS011;5555;59.622;16.556;2022-09-09T04:50:43;1.37;;;0.80;;
11004;SDS011;5555;59.622;16.556;2022-09-09T04:53:09;1.00;;;0.90;;
11004;SDS011;5555;59.622;16.556;2022-09-09T04:55:35;0.90;;;0.80;;
11004;SDS011;5555;59.622;16.556;2022-09-09T04:58:07;2.17;;;1.10;;
11004;SDS011;5555;59.622;16.556;2022-09-09T05:00:34;2.33;;;0.87;;
11004;SDS011;5555;59.622;16.556;2022-09-09T05:03:03;1.17;;;0.87;;
11004;SDS011;5555;59.622;16.556;2022-09-09T05:05:30;1.53;;;1.00;;
11004;SDS011;5555;59.622;16.556;2022-09-09T05:08:06;1.13;;;1.03;;
11004;SDS011;5555;59.622;16.556;2022-09-09T05:10:33;1.60;;;0.90;;
11004;SDS011;5555;59.622;16.556;2022-09-09T05:13:01;2.67;;;1.10;;
11004;SDS011;5555;59.622;16.556;2022-09-09T05:15:27;1.00;;;0.90;;
11004;SDS011;5555;59.622;16.556;2022-09-09T05:17:52;2.37;;;1.00;;
11004;SDS011;5555;59.622;16.556;2022-09-09T05:20:23;1.37;;;0.90;;
11004;SDS011;5555;59.622;16.556;2022-09-09T05:22:52;0.93;;;0.80;;
11004;SDS011;5555;59.622;16.556;2022-09-09T05:25:19;1.93;;;0.80;;
11004;SDS011;5555;59.622;16.556;2022-09-09T05:27:47;1.93;;;0.90;;
11004;SDS011;5555;59.622;16.556;2022-09-09T05:30:12;1.43;;;0.70;;
11004;SDS011;5555;59.622;16.556;2022-09-09T05:32:38;1.10;;;0.70;;
11004;SDS011;5555;59.622;16.556;2022-09-09T05:35:04;1.80;;;0.80;;
11004;SDS011;5555;59.622;16.556;2022-09-09T05:37:30;1.03;;;0.87;;
11004;SDS011;5555;59.622;16.556;2022-09-09T05:39:56;3.60;;;0.93;;
11004;SDS011;5555;59.622;16.556;2022-09-09T05:42:22;0.80;;;0.80;;
11004;SDS011;5555;59.622;16.556;2022-09-09T05:44:49;1.67;;;1.00;;
11004;SDS011;5555;59.622;16.556;2022-09-09T05:47:16;1.23;;;0.83;;
11004;SDS011;5555;59.622;16.556;2022-09-09T05:49:42;2.33;;;0.80;;
11004;SDS011;5555;59.622;16.556;2022-09-09T05:52:08;1.03;;;0.97;;
11004;SDS011;5555;59.622;16.556;2022-09-09T05:54:34;1.57;;;1.10;;
11004;SDS011;5555;59.622;16.556;2022-09-09T05:57:02;2.30;;;0.80;;
11004;SDS011;5555;59.622;16.556;2022-09-09T05:59:28;1.13;;;0.80;;
11004;SDS011;5555;59.622;16.556;2022-09-09T06:01:54;1.23;;;1.00;;
11004;SDS011;5555;59.622;16.556;2022-09-09T06:04:19;1.67;;;1.00;;
11004;SDS011;5555;59.622;16.556;2022-09-09T06:06:47;1.07;;;1.00;;
11004;SDS011;5555;59.622;16.556;2022-09-09T06:09:13;1.00;;;0.90;;
11004;SDS011;5555;59.622;16.556;2022-09-09T06:11:40;1.97;;;0.87;;
11004;SDS011;5555;59.622;16.556;2022-09-09T06:14:06;2.20;;;0.87;;
11004;SDS011;5555;59.622;16.556;2022-09-09T06:16:32;0.63;;;0.60;;
11004;SDS011;5555;59.622;16.556;2022-09-09T06:18:59;1.93;;;0.80;;
11004;SDS011;5555;59.622;16.556;2022-09-09T06:21:32;1.30;;;0.80;;
11004;SDS011;5555;59.622;16.556;2022-09-09T06:24:01;1.20;;;0.70;;
11004;SDS011;5555;59.622;16.556;2022-09-09T06:26:29;1.53;;;0.80;;
11004;SDS011;5555;59.622;16.556;2022-09-09T06:28:55;1.50;;;0.90;;
11004;SDS011;5555;59.622;16.556;2022-09-09T06:31:23;1.13;;;0.80;;
11004;SDS011;5555;59.622;16.556;2022-09-09T06:33:51;1.37;;;0.80;;
11004;SDS011;5555;59.622;16.556;2022-09-09T06:36:28;1.33;;;0.80;;
11004;SDS011;5555;59.622;16.556;2022-09-09T06:38:56;0.80;;;0.80;;
11004;SDS011;5555;59.622;16.556;2022-09-09T06:41:22;1.10;;;0.80;;
11004;SDS011;5555;59.622;16.556;2022-09-09T06:43:51;1.37;;;0.70;;
11004;SDS011;5555;59.622;16.556;2022-09-09T06:46:26;1.37;;;0.80;;
11004;SDS011;5555;59.622;16.556;2022-09-09T06:48:54;1.30;;;0.80;;
11004;SDS011;5555;59.622;16.556;2022-09-09T06:51:24;1.83;;;0.60;;
11004;SDS011;5555;59.622;16.556;2022-09-09T06:53:55;1.10;;;0.70;;
11004;SDS011;5555;59.622;16.556;2022-09-09T06:56:43;2.30;;;0.90;;
11004;SDS011;5555;59.622;16.556;2022-09-09T06:59:08;1.93;;;0.90;;
11004;SDS011;5555;59.622;16.556;2022-09-09T07:01:38;0.93;;;0.70;;
11004;SDS011;5555;59.622;16.556;2022-09-09T07:04:06;1.13;;;0.80;;
11004;SDS011;5555;59.622;16.556;2022-09-09T07:06:40;0.60;;;0.50;;
11004;SDS011;5555;59.622;16.556;2022-09-09T07:09:08;2.13;;;0.80;;
11004;SDS011;5555;59.622;16.556;2022-09-09T07:11:39;1.43;;;0.80;;
11004;SDS011;5555;59.622;16.556;2022-09-09T07:14:07;2.93;;;0.77;;
11004;SDS011;5555;59.622;16.556;2022-09-09T07:16:34;1.90;;;0.70;;
11004;SDS011;5555;59.622;16.556;2022-09-09T07:19:02;1.00;;;0.70;;
11004;SDS011;5555;59.622;16.556;2022-09-09T07:21:29;2.10;;;0.53;;
11004;SDS011;5555;59.622;16.556;2022-09-09T07:23:55;2.33;;;0.70;;
11004;SDS011;5555;59.622;16.556;2022-09-09T07:26:24;1.10;;;1.00;;
11004;SDS011;5555;59.622;16.556;2022-09-09T07:28:52;0.93;;;0.70;;
11004;SDS011;5555;59.622;16.556;2022-09-09T07:31:19;2.60;;;0.70;;
11004;SDS011;5555;59.622;16.556;2022-09-09T07:33:46;1.10;;;0.60;;
11004;SDS011;5555;59.622;16.556;2022-09-09T07:36:20;1.67;;;0.70;;
11004;SDS011;5555;59.622;16.556;2022-09-09T07:38:52;1.13;;;0.70;;
11004;SDS011;5555;59.622;16.556;2022-09-09T07:41:20;1.27;;;0.50;;
11004;SDS011;5555;59.622;16.556;2022-09-09T07:43:55;1.57;;;0.53;;
11004;SDS011;5555;59.622;16.556;2022-09-09T07:46:21;3.20;;;0.77;;
11004;SDS011;5555;59.622;16.556;2022-09-09T07:48:50;3.30;;;0.80;;
11004;SDS011;5555;59.622;16.556;2022-09-09T07:51:19;0.93;;;0.60;;
11004;SDS011;5555;59.622;16.556;2022-09-09T07:53:47;1.07;;;0.50;;
11004;SDS011;5555;59.622;16.556;2022-09-09T07:56:14;2.40;;;0.70;;
11004;SDS011;5555;59.622;16.556;2022-09-09T07:58:46;2.30;;;0.63;;
11004;SDS011;5555;59.622;16.556;2022-09-09T08:01:14;2.70;;;0.70;;
11004;SDS011;5555;59.622;16.556;2022-09-09T08:03:43;3.13;;;0.80;;
11004;SDS011;5555;59.622;16.556;2022-09-09T08:06:10;2.37;;;0.57;;
11004;SDS011;5555;59.622;16.556;2022-09-09T08:08:37;1.47;;;0.60;;
11004;SDS011;5555;59.622;16.556;2022-09-09T08:11:10;1.83;;;0.60;;
11004;SDS011;5555;59.622;16.556;2022-09-09T08:13:37;4.73;;;0.63;;
11004;SDS011;5555;59.622;16.556;2022-09-09T08:16:07;4.63;;;0.60;;
11004;SDS011;5555;59.622;16.556;2022-09-09T08:18:43;3.03;;;0.70;;
11004;SDS011;5555;59.622;16.556;2022-09-09T08:21:13;1.20;;;0.77;;
11004;SDS011;5555;59.622;16.556;2022-09-09T08:23:42;1.07;;;0.60;;
11004;SDS011;5555;59.622;16.556;2022-09-09T08:26:14;3.80;;;0.60;;
11004;SDS011;5555;59.622;16.556;2022-09-09T08:28:47;1.07;;;0.40;;
11004;SDS011;5555;59.622;16.556;2022-09-09T08:31:17;1.07;;;0.60;;
11004;SDS011;5555;59.622;16.556;2022-09-09T08:33:52;1.53;;;0.47;;
11004;SDS011;5555;59.622;16.556;2022-09-09T08:36:19;0.93;;;0.30;;
11004;SDS011;5555;59.622;16.556;2022-09-09T08:38:50;2.63;;;0.70;;
11004;SDS011;5555;59.622;16.556;2022-09-09T08:52:25;3.40;;;0.40;;
11004;SDS011;5555;59.622;16.556;2022-09-09T08:55:10;2.00;;;0.50;;
11004;SDS011;5555;59.622;16.556;2022-09-09T08:57:44;1.60;;;0.70;;
11004;SDS011;5555;59.622;16.556;2022-09-09T09:00:11;2.67;;;0.63;;
11004;SDS011;5555;59.622;16.556;2022-09-09T09:08:48;0.40;;;0.30;;
11004;SDS011;5555;59.622;16.556;2022-09-09T09:11:20;1.57;;;0.60;;
11004;SDS011;5555;59.622;16.556;2022-09-09T09:19:03;2.13;;;0.40;;
11004;SDS011;5555;59.622;16.556;2022-09-09T09:21:34;1.77;;;0.40;;
11004;SDS011;5555;59.622;16.556;2022-09-09T09:26:57;0.80;;;0.30;;
11004;SDS011;5555;59.622;16.556;2022-09-09T09:29:32;1.13;;;0.40;;
11004;SDS011;5555;59.622;16.556;2022-09-09T09:31:58;3.20;;;0.60;;
11004;SDS011;5555;59.622;16.556;2022-09-09T09:34:27;3.17;;;0.40;;
11004;SDS011;5555;59.622;16.556;2022-09-09T09:36:57;3.70;;;0.40;;
11004;SDS011;5555;59.622;16.556;2022-09-09T09:39:30;1.70;;;0.50;;
11004;SDS011;5555;59.622;16.556;2022-09-09T09:42:11;2.60;;;0.60;;
11004;SDS011;5555;59.622;16.556;2022-09-09T09:44:40;2.47;;;0.50;;
11004;SDS011;5555;59.622;16.556;2022-09-09T09:47:17;3.20;;;0.83;;
11004;SDS011;5555;59.622;16.556;2022-09-09T09:49:54;5.13;;;0.60;;
11004;SDS011;5555;59.622;16.556;2022-09-09T09:52:30;2.30;;;0.60;;
11004;SDS011;5555;59.622;16.556;2022-09-09T09:54:57;3.77;;;0.50;;
11004;SDS011;5555;59.622;16.556;2022-09-09T09:57:28;1.03;;;0.37;;
11004;SDS011;5555;59.622;16.556;2022-09-09T10:02:43;2.77;;;0.50;;
11004;SDS011;5555;59.622;16.556;2022-09-09T10:05:15;3.13;;;0.70;;
11004;SDS011;5555;59.622;16.556;2022-09-09T10:07:43;0.73;;;0.40;;
11004;SDS011;5555;59.622;16.556;2022-09-09T10:10:12;0.80;;;0.47;;
11004;SDS011;5555;59.622;16.556;2022-09-09T10:24:44;0.50;;;0.50;;
11004;SDS011;5555;59.622;16.556;2022-09-09T10:27:37;2.93;;;0.60;;
11004;SDS011;5555;59.622;16.556;2022-09-09T10:33:18;1.57;;;0.80;;
11004;SDS011;5555;59.622;16.556;2022-09-09T10:52:22;3.30;;;0.87;;
11004;SDS011;5555;59.622;16.556;2022-09-09T10:55:02;7.33;;;0.67;;
11004;SDS011;5555;59.622;16.556;2022-09-09T11:00:16;2.60;;;0.70;;
11004;SDS011;5555;59.622;16.556;2022-09-09T11:02:44;0.93;;;0.30;;
11004;SDS011;5555;59.622;16.556;2022-09-09T11:08:12;2.53;;;0.53;;
11004;SDS011;5555;59.622;16.556;2022-09-09T11:13:26;1.27;;;0.40;;
11004;SDS011;5555;59.622;16.556;2022-09-09T11:17:02;2.23;;;0.50;;
11004;SDS011;5555;59.622;16.556;2022-09-09T11:19:35;1.80;;;0.50;;
11004;SDS011;5555;59.622;16.556;2022-09-09T11:22:07;1.93;;;0.40;;
11004;SDS011;5555;59.622;16.556;2022-09-09T11:24:59;0.97;;;0.40;;
11004;SDS011;5555;59.622;16.556;2022-09-09T11:33:41;2.57;;;0.43;;
11004;SDS011;5555;59.622;16.556;2022-09-09T11:36:42;2.63;;;0.53;;
11004;SDS011;5555;59.622;16.556;2022-09-09T11:39:23;1.27;;;0.37;;
11004;SDS011;5555;59.622;16.556;2022-09-09T11:44:37;0.77;;;0.40;;
11004;SDS011;5555;59.622;16.556;2022-09-09T11:47:02;0.97;;;0.43;;
11004;SDS011;5555;59.622;16.556;2022-09-09T11:49:29;1.40;;;0.40;;
11004;SDS011;5555;59.622;16.556;2022-09-09T11:52:18;0.70;;;0.40;;
11004;SDS011;5555;59.622;16.556;2022-09-09T11:54:47;1.40;;;0.53;;
11004;SDS011;5555;59.622;16.556;2022-09-09T11:59:51;1.80;;;0.30;;
11004;SDS011;5555;59.622;16.556;2022-09-09T12:02:24;1.53;;;0.53;;
11004;SDS011;5555;59.622;16.556;2022-09-09T12:08:04;1.40;;;0.37;;
11004;SDS011;5555;59.622;16.556;2022-09-09T12:10:28;3.60;;;0.37;;
11004;SDS011;5555;59.622;16.556;2022-09-09T12:15:57;0.90;;;0.33;;
11004;SDS011;5555;59.622;16.556;2022-09-09T12:18:34;1.10;;;0.40;;
11004;SDS011;5555;59.622;16.556;2022-09-09T12:26:22;1.00;;;0.40;;
11004;SDS011;5555;59.622;16.556;2022-09-09T12:29:23;0.63;;;0.40;;
11004;SDS011;5555;59.622;16.556;2022-09-09T12:39:57;1.13;;;0.47;;
11004;SDS011;5555;59.622;16.556;2022-09-09T12:42:25;1.25;;;0.40;;
11004;SDS011;5555;59.622;16.556;2022-09-09T12:44:58;1.45;;;0.40;;
11004;SDS011;5555;59.622;16.556;2022-09-09T12:47:28;0.57;;;0.40;;
11004;SDS011;5555;59.622;16.556;2022-09-09T12:55:58;1.65;;;0.28;;
11004;SDS011;5555;59.622;16.556;2022-09-09T12:58:33;1.08;;;0.55;;
11004;SDS011;5555;59.622;16.556;2022-09-09T13:01:01;0.93;;;0.30;;
11004;SDS011;5555;59.622;16.556;2022-09-09T13:03:30;1.10;;;0.43;;
11004;SDS011;5555;59.622;16.556;2022-09-09T13:05:57;1.20;;;0.30;;
11004;SDS011;5555;59.622;16.556;2022-09-09T13:08:36;1.70;;;0.50;;
11004;SDS011;5555;59.622;16.556;2022-09-09T13:11:03;1.37;;;0.40;;
11004;SDS011;5555;59.622;16.556;2022-09-09T13:13:36;2.40;;;0.70;;
11004;SDS011;5555;59.622;16.556;2022-09-09T13:16:04;1.77;;;0.50;;
11004;SDS011;5555;59.622;16.556;2022-09-09T13:18:36;3.13;;;0.77;;
11004;SDS011;5555;59.622;16.556;2022-09-09T13:21:07;1.00;;;0.50;;
11004;SDS011;5555;59.622;16.556;2022-09-09T13:23:33;1.75;;;0.47;;
11004;SDS011;5555;59.622;16.556;2022-09-09T13:26:02;1.90;;;0.40;;
11004;SDS011;5555;59.622;16.556;2022-09-09T13:28:49;1.55;;;0.40;;
11004;SDS011;5555;59.622;16.556;2022-09-09T13:34:10;0.55;;;0.50;;
11004;SDS011;5555;59.622;16.556;2022-09-09T13:36:52;2.83;;;0.65;;
11004;SDS011;5555;59.622;16.556;2022-09-09T13:39:23;1.73;;;0.47;;
11004;SDS011;5555;59.622;16.556;2022-09-09T13:41:48;3.53;;;0.32;;
11004;SDS011;5555;59.622;16.556;2022-09-09T13:44:17;3.45;;;0.55;;
11004;SDS011;5555;59.622;16.556;2022-09-09T13:47:05;1.17;;;0.40;;
11004;SDS011;5555;59.622;16.556;2022-09-09T13:49:51;0.88;;;0.60;;
11004;SDS011;5555;59.622;16.556;2022-09-09T13:52:17;1.55;;;0.55;;
11004;SDS011;5555;59.622;16.556;2022-09-09T13:54:50;1.75;;;0.28;;
11004;SDS011;5555;59.622;16.556;2022-09-09T13:57:18;0.73;;;0.40;;
11004;SDS011;5555;59.622;16.556;2022-09-09T13:59:46;2.83;;;0.63;;
11004;SDS011;5555;59.622;16.556;2022-09-09T14:02:12;2.05;;;0.52;;
11004;SDS011;5555;59.622;16.556;2022-09-09T14:04:38;4.10;;;0.65;;
11004;SDS011;5555;59.622;16.556;2022-09-09T14:07:07;1.83;;;0.50;;
11004;SDS011;5555;59.622;16.556;2022-09-09T14:09:36;1.63;;;0.70;;
11004;SDS011;5555;59.622;16.556;2022-09-09T14:12:02;1.50;;;0.50;;
11004;SDS011;5555;59.622;16.556;2022-09-09T14:14:28;1.63;;;0.80;;
11004;SDS011;5555;59.622;16.556;2022-09-09T14:16:54;1.87;;;0.60;;
11004;SDS011;5555;59.622;16.556;2022-09-09T14:19:19;1.43;;;0.70;;
11004;SDS011;5555;59.622;16.556;2022-09-09T14:21:45;1.47;;;0.70;;
11004;SDS011;5555;59.622;16.556;2022-09-09T14:24:10;3.47;;;0.70;;
11004;SDS011;5555;59.622;16.556;2022-09-09T14:26:37;3.47;;;0.60;;
11004;SDS011;5555;59.622;16.556;2022-09-09T14:29:03;1.67;;;0.70;;
11004;SDS011;5555;59.622;16.556;2022-09-09T14:31:29;1.90;;;0.60;;
11004;SDS011;5555;59.622;16.556;2022-09-09T14:33:54;1.13;;;0.60;;
11004;SDS011;5555;59.622;16.556;2022-09-09T14:36:20;1.70;;;0.60;;
11004;SDS011;5555;59.622;16.556;2022-09-09T14:38:46;2.13;;;0.90;;
11004;SDS011;5555;59.622;16.556;2022-09-09T14:41:14;2.00;;;0.70;;
11004;SDS011;5555;59.622;16.556;2022-09-09T14:43:44;1.90;;;0.80;;
11004;SDS011;5555;59.622;16.556;2022-09-09T14:46:12;1.43;;;0.70;;
11004;SDS011;5555;59.622;16.556;2022-09-09T14:48:39;1.50;;;0.77;;
11004;SDS011;5555;59.622;16.556;2022-09-09T14:51:09;1.63;;;0.70;;
11004;SDS011;5555;59.622;16.556;2022-09-09T14:53:37;1.53;;;0.83;;
11004;SDS011;5555;59.622;16.556;2022-09-09T14:56:08;2.10;;;0.70;;
11004;SDS011;5555;59.622;16.556;2022-09-09T14:58:36;1.40;;;0.70;;
11004;SDS011;5555;59.622;16.556;2022-09-09T15:01:07;1.00;;;0.77;;
11004;SDS011;5555;59.622;16.556;2022-09-09T15:03:37;2.70;;;0.90;;
11004;SDS011;5555;59.622;16.556;2022-09-09T15:06:07;2.13;;;0.65;;
11004;SDS011;5555;59.622;16.556;2022-09-09T15:08:35;2.70;;;0.70;;
11004;SDS011;5555;59.622;16.556;2022-09-09T15:11:02;1.80;;;0.70;;
11004;SDS011;5555;59.622;16.556;2022-09-09T15:13:29;3.75;;;0.82;;
11004;SDS011;5555;59.622;16.556;2022-09-09T15:15:54;1.67;;;0.80;;
11004;SDS011;5555;59.622;16.556;2022-09-09T15:18:20;1.17;;;0.90;;
11004;SDS011;5555;59.622;16.556;2022-09-09T15:20:46;3.37;;;1.00;;
11004;SDS011;5555;59.622;16.556;2022-09-09T15:23:12;1.63;;;0.90;;
11004;SDS011;5555;59.622;16.556;2022-09-09T15:25:49;2.50;;;0.93;;
11004;SDS011;5555;59.622;16.556;2022-09-09T15:28:17;1.97;;;0.97;;
11004;SDS011;5555;59.622;16.556;2022-09-09T15:30:43;1.87;;;0.77;;
11004;SDS011;5555;59.622;16.556;2022-09-09T15:33:09;4.17;;;0.90;;
11004;SDS011;5555;59.622;16.556;2022-09-09T15:35:35;1.80;;;1.00;;
11004;SDS011;5555;59.622;16.556;2022-09-09T15:38:02;1.93;;;0.70;;
11004;SDS011;5555;59.622;16.556;2022-09-09T15:40:30;4.20;;;1.07;;
11004;SDS011;5555;59.622;16.556;2022-09-09T15:42:57;3.33;;;1.17;;
11004;SDS011;5555;59.622;16.556;2022-09-09T15:45:23;2.83;;;0.83;;
11004;SDS011;5555;59.622;16.556;2022-09-09T15:47:49;4.03;;;0.90;;
11004;SDS011;5555;59.622;16.556;2022-09-09T15:50:14;2.13;;;0.90;;
11004;SDS011;5555;59.622;16.556;2022-09-09T15:52:40;2.70;;;0.90;;
11004;SDS011;5555;59.622;16.556;2022-09-09T15:55:06;3.47;;;0.80;;
11004;SDS011;5555;59.622;16.556;2022-09-09T15:57:33;1.27;;;0.90;;
11004;SDS011;5555;59.622;16.556;2022-09-09T16:00:01;2.70;;;1.10;;
11004;SDS011;5555;59.622;16.556;2022-09-09T16:02:31;2.35;;;0.90;;
11004;SDS011;5555;59.622;16.556;2022-09-09T16:04:56;1.33;;;0.90;;
11004;SDS011;5555;59.622;16.556;2022-09-09T16:07:22;1.17;;;0.90;;
11004;SDS011;5555;59.622;16.556;2022-09-09T16:09:48;3.42;;;0.80;;
11004;SDS011;5555;59.622;16.556;2022-09-09T16:12:16;1.25;;;0.70;;
11004;SDS011;5555;59.622;16.556;2022-09-09T16:14:42;1.95;;;0.90;;
11004;SDS011;5555;59.622;16.556;2022-09-09T16:17:08;2.78;;;0.95;;
11004;SDS011;5555;59.622;16.556;2022-09-09T16:19:33;1.38;;;0.80;;
11004;SDS011;5555;59.622;16.556;2022-09-09T16:21:59;1.05;;;0.73;;
11004;SDS011;5555;59.622;16.556;2022-09-09T16:24:26;2.03;;;1.00;;
11004;SDS011;5555;59.622;16.556;2022-09-09T16:26:52;2.38;;;0.90;;
11004;SDS011;5555;59.622;16.556;2022-09-09T16:29:19;0.98;;;0.80;;
11004;SDS011;5555;59.622;16.556;2022-09-09T16:31:46;2.30;;;1.00;;
11004;SDS011;5555;59.622;16.556;2022-09-09T16:34:13;1.00;;;0.70;;
11004;SDS011;5555;59.622;16.556;2022-09-09T16:36:40;2.20;;;1.17;;
11004;SDS011;5555;59.622;16.556;2022-09-09T16:39:08;1.10;;;0.80;;
11004;SDS011;5555;59.622;16.556;2022-09-09T16:41:38;2.85;;;0.93;;
11004;SDS011;5555;59.622;16.556;2022-09-09T16:44:06;1.65;;;0.90;;
11004;SDS011;5555;59.622;16.556;2022-09-09T16:46:34;2.72;;;1.00;;
11004;SDS011;5555;59.622;16.556;2022-09-09T16:49:02;1.57;;;0.80;;
11004;SDS011;5555;59.622;16.556;2022-09-09T16:51:30;1.00;;;0.80;;
11004;SDS011;5555;59.622;16.556;2022-09-09T16:53:58;2.83;;;1.17;;
11004;SDS011;5555;59.622;16.556;2022-09-09T16:56:26;3.37;;;0.90;;
11004;SDS011;5555;59.622;16.556;2022-09-09T16:58:56;3.50;;;1.20;;
11004;SDS011;5555;59.622;16.556;2022-09-09T17:01:23;3.63;;;1.30;;
11004;SDS011;5555;59.622;16.556;2022-09-09T17:03:57;3.27;;;1.33;;
11004;SDS011;5555;59.622;16.556;2022-09-09T17:06:25;4.10;;;1.10;;
11004;SDS011;5555;59.622;16.556;2022-09-09T17:08:55;5.17;;;1.20;;
11004;SDS011;5555;59.622;16.556;2022-09-09T17:11:22;3.30;;;1.57;;
11004;SDS011;5555;59.622;16.556;2022-09-09T17:13:48;2.50;;;1.40;;
11004;SDS011;5555;59.622;16.556;2022-09-09T17:16:16;1.47;;;1.30;;
11004;SDS011;5555;59.622;16.556;2022-09-09T17:18:42;1.87;;;1.10;;
11004;SDS011;5555;59.622;16.556;2022-09-09T17:21:11;5.70;;;1.50;;
11004;SDS011;5555;59.622;16.556;2022-09-09T17:23:41;2.87;;;1.23;;
11004;SDS011;5555;59.622;16.556;2022-09-09T17:26:08;4.10;;;1.30;;
11004;SDS011;5555;59.622;16.556;2022-09-09T17:28:35;1.43;;;1.17;;
11004;SDS011;5555;59.622;16.556;2022-09-09T17:31:05;2.90;;;1.60;;
11004;SDS011;5555;59.622;16.556;2022-09-09T17:33:36;2.30;;;1.30;;
11004;SDS011;5555;59.622;16.556;2022-09-09T17:36:13;4.30;;;1.67;;
11004;SDS011;5555;59.622;16.556;2022-09-09T17:38:44;2.53;;;1.53;;
11004;SDS011;5555;59.622;16.556;2022-09-09T17:41:13;4.60;;;1.60;;
11004;SDS011;5555;59.622;16.556;2022-09-09T17:43:43;2.77;;;1.50;;
11004;SDS011;5555;59.622;16.556;2022-09-09T17:46:10;2.30;;;1.50;;